X  Sluiten METAR luchtvaart weer gegevens      EHAM Amsterdam Schiphol
Temperatuur
8°C Temperatuur
4°C Dauwpunt
76% Vochtigheid



Wind
16 KM/U
10 MPH
4 M/S
9 KTS



80°
Oosten
Huidig weer

Helder Helder
Luchtdruk 1027.92 (hPa) - 30.35 (inHg)
Zicht 6.2 (mijl) - 10 (km)
Vliegveld
Vliegveld code EHAM

Locatie : Amsterdam Schiphol
Afstand: 2 (km)

Metar:
EHAM 100655Z 08009KT 050V110 CAVOK 08/04 Q1028 NOSIG

Tijd: 10-04-2020 08:55 CEST